Time;durP1;ratioP1;P1;durP2;ratioP2;P2;SDS_P1;SDS_P2;PMS_P1;PMS_P2;Temp;Humidity;BMP_temperature;BMP_pressure;BME280_temperature;BME280_humidity;BME280_pressure;Samples;Min_cycle;Max_cycle;Signal;HPM_P1;HPM_P2
2023/06/26 00:01:36;;;;;;;5.10;3.00;;;;;;;24.65;67.58;100923.70;107190;1257;25409;-49
2023/06/26 00:04:03;;;;;;;6.80;3.60;;;;;;;24.65;67.70;100932.10;107071;1267;25350;-53
2023/06/26 00:06:31;;;;;;;4.50;3.10;;;;;;;24.65;68.11;100934.42;106868;1259;25360;-52
2023/06/26 00:08:58;;;;;;;6.20;3.00;;;;;;;24.66;68.32;100945.31;106896;1265;25381;-51
2023/06/26 00:11:27;;;;;;;8.30;3.40;;;;;;;24.71;68.42;100953.13;106815;1267;25397;-49
2023/06/26 00:13:54;;;;;;;4.50;3.30;;;;;;;24.76;68.44;100957.54;106889;1263;25285;-48
2023/06/26 00:16:21;;;;;;;10.30;4.20;;;;;;;24.81;68.24;100948.81;106901;1266;25339;-52
2023/06/26 00:18:48;;;;;;;5.00;3.50;;;;;;;24.84;68.12;100951.23;106388;1274;25334;-49
2023/06/26 00:21:16;;;;;;;4.70;3.40;;;;;;;24.85;68.03;100943.31;107059;1263;25473;-51
2023/06/26 00:23:43;;;;;;;4.70;3.30;;;;;;;24.87;67.98;100935.92;107098;1266;24352;-47
2023/06/26 00:26:11;;;;;;;5.70;3.70;;;;;;;24.87;67.77;100926.98;107004;1258;25350;-50
2023/06/26 00:28:38;;;;;;;3.80;3.40;;;;;;;24.88;67.71;100927.78;107149;1263;25332;-49
2023/06/26 00:31:06;;;;;;;6.30;3.80;;;;;;;24.86;67.76;100924.08;107082;1264;24346;-47
2023/06/26 00:33:33;;;;;;;4.10;3.60;;;;;;;24.84;67.78;100915.86;106883;1265;22560;-48
2023/06/26 00:35:59;;;;;;;4.30;3.90;;;;;;;24.83;68.01;100907.77;107138;1263;23914;-47
2023/06/26 00:38:26;;;;;;;4.60;3.50;;;;;;;24.81;68.07;100905.70;107098;1256;25332;-50
2023/06/26 00:40:54;;;;;;;4.90;3.90;;;;;;;24.80;68.30;100903.61;107092;1260;22538;-47
2023/06/26 00:43:23;;;;;;;3.90;3.40;;;;;;;24.82;68.19;100896.20;107049;1261;22530;-48
2023/06/26 00:45:50;;;;;;;4.40;3.30;;;;;;;24.84;68.01;100885.91;106845;1256;24317;-51
2023/06/26 00:48:17;;;;;;;7.60;3.70;;;;;;;24.83;67.71;100886.55;106805;1267;25331;-49
2023/06/26 00:50:44;;;;;;;7.40;4.10;;;;;;;24.81;67.97;100887.06;106917;1262;25430;-47
2023/06/26 00:53:11;;;;;;;4.20;3.70;;;;;;;24.80;67.99;100885.83;107060;1264;24348;-48
2023/06/26 00:55:37;;;;;;;4.00;3.40;;;;;;;24.78;67.98;100884.96;106887;1262;22562;-49
2023/06/26 00:58:04;;;;;;;4.90;3.90;;;;;;;24.76;68.40;100884.93;107021;1265;24198;-48
2023/06/26 01:00:32;;;;;;;5.10;4.00;;;;;;;24.77;68.66;100878.11;107164;1262;25474;-50
2023/06/26 01:02:59;;;;;;;8.60;4.00;;;;;;;24.80;68.49;100870.58;106918;1263;24246;-51
2023/06/26 01:05:28;;;;;;;6.00;4.40;;;;;;;24.82;68.40;100856.06;107019;1265;25325;-49
2023/06/26 01:07:56;;;;;;;6.30;4.10;;;;;;;24.85;68.53;100854.08;107019;1267;25360;-49
2023/06/26 01:10:27;;;;;;;4.70;4.20;;;;;;;24.83;68.71;100855.77;107120;1259;26947;-47
2023/06/26 01:12:54;;;;;;;5.00;4.30;;;;;;;24.84;68.79;100861.55;106861;1262;25285;-47
2023/06/26 01:15:22;;;;;;;7.10;4.50;;;;;;;24.84;69.14;100867.12;107090;1261;25370;-49
2023/06/26 01:17:51;;;;;;;7.00;4.60;;;;;;;24.85;69.26;100872.85;106830;1257;25596;-47
2023/06/26 01:20:18;;;;;;;6.20;4.70;;;;;;;24.87;69.43;100877.98;107026;1273;25350;-52
2023/06/26 01:23:05;;;;;;;8.50;5.50;;;;;;;24.92;69.58;100886.51;106772;1268;22527;-47
2023/06/26 01:25:52;;;;;;;11.20;5.30;;;;;;;24.96;69.66;100896.81;106776;1259;25430;-47
2023/06/26 01:28:20;;;;;;;5.50;4.60;;;;;;;24.98;69.78;100888.66;106781;1259;25331;-50
2023/06/26 01:30:47;;;;;;;5.80;4.40;;;;;;;25.00;69.59;100876.08;106839;1269;25346;-50
2023/06/26 01:33:14;;;;;;;8.00;4.20;;;;;;;24.98;68.86;100876.80;106746;1266;25408;-48
2023/06/26 01:35:41;;;;;;;7.00;4.10;;;;;;;24.92;68.27;100880.80;106652;1262;25370;-49
2023/06/26 01:38:23;;;;;;;4.90;3.70;;;;;;;24.85;67.92;100887.43;106768;1267;25401;-48
2023/06/26 01:40:50;;;;;;;7.10;4.00;;;;;;;24.78;67.67;100884.11;106780;1267;25359;-48
2023/06/26 01:43:41;;;;;;;6.30;4.10;;;;;;;24.73;67.59;100882.49;106826;1267;22556;-50
2023/06/26 01:46:33;;;;;;;4.80;3.70;;;;;;;24.69;67.41;100871.08;106824;1268;25469;-54
2023/06/26 01:49:40;;;;;;;4.00;3.30;;;;;;;24.62;67.33;100862.06;106012;1284;25380;-48
2023/06/26 01:52:20;;;;;;;5.30;3.50;;;;;;;24.57;67.46;100858.90;106418;1276;25603;-49
2023/06/26 01:55:20;;;;;;;5.90;3.50;;;;;;;24.58;67.27;100847.66;106323;1265;24213;-48
2023/06/26 01:57:48;;;;;;;6.00;4.00;;;;;;;24.56;66.98;100838.08;106044;1277;23234;-50
2023/06/26 02:00:17;;;;;;;6.60;3.10;;;;;;;24.53;66.97;100839.38;105823;1273;24217;-48
2023/06/26 02:02:45;;;;;;;4.30;3.30;;;;;;;24.51;66.78;100846.08;105695;1283;22538;-51
2023/06/26 02:05:13;;;;;;;3.70;3.10;;;;;;;24.52;66.87;100858.41;105862;1279;22546;-49
2023/06/26 02:07:40;;;;;;;5.90;4.00;;;;;;;24.55;67.03;100869.54;105842;1275;25411;-48
2023/06/26 02:10:08;;;;;;;3.90;3.20;;;;;;;24.59;67.17;100878.42;106009;1280;25340;-49
2023/06/26 02:12:36;;;;;;;4.50;3.40;;;;;;;24.65;67.22;100879.42;105918;1277;25352;-47
2023/06/26 02:15:04;;;;;;;4.40;3.70;;;;;;;24.69;67.40;100884.56;105961;1280;25413;-49
2023/06/26 02:17:32;;;;;;;5.00;3.80;;;;;;;24.73;67.61;100889.05;105790;1277;25275;-49
2023/06/26 02:19:59;;;;;;;4.90;3.50;;;;;;;24.78;67.55;100885.34;105870;1279;25357;-47
2023/06/26 02:22:28;;;;;;;5.70;4.50;;;;;;;24.81;67.71;100881.52;105883;1277;25483;-47
2023/06/26 02:24:55;;;;;;;5.90;4.80;;;;;;;24.83;68.02;100872.48;105866;1280;26345;-47
2023/06/26 02:27:22;;;;;;;5.60;4.30;;;;;;;24.84;68.28;100854.66;106260;1276;25476;-49
2023/06/26 02:29:49;;;;;;;5.30;4.40;;;;;;;24.80;68.43;100851.23;106280;1274;25322;-51
2023/06/26 02:32:16;;;;;;;5.20;4.70;;;;;;;24.74;68.88;100849.41;106203;1281;25546;-50
2023/06/26 02:34:43;;;;;;;6.20;4.80;;;;;;;24.68;69.22;100852.19;106545;1274;25356;-48
2023/06/26 02:37:10;;;;;;;5.80;5.10;;;;;;;24.64;69.63;100856.97;106791;1260;25350;-50
2023/06/26 02:39:38;;;;;;;7.10;5.30;;;;;;;24.58;69.93;100856.33;106799;1262;22644;-50
2023/06/26 02:42:06;;;;;;;5.10;4.70;;;;;;;24.56;70.42;100853.90;107121;1260;25345;-48
2023/06/26 02:44:33;;;;;;;5.30;4.80;;;;;;;24.55;70.60;100855.89;107153;1264;25341;-48
2023/06/26 02:47:00;;;;;;;5.30;4.80;;;;;;;24.55;71.04;100858.55;106832;1265;25369;-48
2023/06/26 02:49:27;;;;;;;6.40;5.80;;;;;;;24.54;71.26;100854.60;106816;1260;25432;-49
2023/06/26 02:51:55;;;;;;;5.40;5.00;;;;;;;24.52;71.34;100850.15;106906;1272;25343;-47
2023/06/26 02:54:25;;;;;;;6.10;5.50;;;;;;;24.50;71.67;100841.61;107053;1257;25341;-47
2023/06/26 02:56:54;;;;;;;5.70;5.20;;;;;;;24.47;71.67;100840.54;106853;1267;25350;-47
2023/06/26 02:59:26;;;;;;;7.10;6.20;;;;;;;24.46;71.89;100842.73;106827;1266;25408;-48
2023/06/26 03:01:53;;;;;;;6.60;6.00;;;;;;;24.46;71.85;100843.67;106711;1269;25331;-46
2023/06/26 03:04:23;;;;;;;6.80;6.20;;;;;;;24.44;71.98;100842.79;106630;1266;22534;-48
2023/06/26 03:06:51;;;;;;;8.20;7.00;;;;;;;24.45;72.13;100832.95;106514;1269;25532;-51
2023/06/26 03:09:18;;;;;;;7.70;6.40;;;;;;;24.45;72.33;100828.47;106867;1267;25369;-47
2023/06/26 03:11:45;;;;;;;7.60;6.90;;;;;;;24.46;72.55;100826.14;106907;1257;25472;-47
2023/06/26 03:14:12;;;;;;;8.00;7.00;;;;;;;24.46;72.48;100821.70;106757;1269;25309;-47
2023/06/26 03:16:40;;;;;;;6.90;6.20;;;;;;;24.47;72.60;100813.83;106703;1262;25822;-47
2023/06/26 03:19:08;;;;;;;6.70;6.10;;;;;;;24.48;72.60;100811.40;107057;1266;25360;-49
2023/06/26 03:21:51;;;;;;;7.80;6.50;;;;;;;24.50;72.93;100803.10;106863;1265;25554;-48
2023/06/26 03:24:17;;;;;;;7.10;6.40;;;;;;;24.51;72.87;100800.70;107111;1259;25332;-49
2023/06/26 03:26:45;;;;;;;6.90;6.30;;;;;;;24.50;72.59;100799.52;107135;1256;25332;-47
2023/06/26 03:29:12;;;;;;;7.50;6.70;;;;;;;24.49;72.52;100799.83;107073;1262;25343;-50
2023/06/26 03:31:40;;;;;;;7.60;7.00;;;;;;;24.49;72.47;100793.27;106824;1263;24858;-49
2023/06/26 03:34:07;;;;;;;7.90;7.10;;;;;;;24.48;72.37;100796.52;106870;1267;25459;-49
2023/06/26 03:36:35;;;;;;;7.50;6.80;;;;;;;24.46;72.42;100791.73;106696;1274;25310;-47
2023/06/26 03:39:04;;;;;;;8.10;7.10;;;;;;;24.47;72.62;100790.77;107083;1253;25357;-47
2023/06/26 03:41:31;;;;;;;8.00;7.20;;;;;;;24.48;72.68;100791.94;106889;1255;24011;-49
2023/06/26 03:44:00;;;;;;;9.10;8.30;;;;;;;24.48;72.51;100794.91;106821;1269;23333;-47
2023/06/26 03:46:32;;;;;;;8.20;7.50;;;;;;;24.47;72.44;100797.98;107001;1265;25397;-48
2023/06/26 03:49:00;;;;;;;8.50;7.60;;;;;;;24.47;72.49;100802.67;106898;1268;25399;-47
2023/06/26 03:51:27;;;;;;;10.30;7.70;;;;;;;24.45;72.11;100807.20;106786;1262;25335;-52
2023/06/26 03:53:54;;;;;;;8.60;7.60;;;;;;;24.44;71.83;100804.84;106867;1265;25373;-48
2023/06/26 03:56:22;;;;;;;8.40;7.30;;;;;;;24.43;71.72;100801.70;107103;1264;25380;-49
2023/06/26 03:58:49;;;;;;;9.70;8.10;;;;;;;24.41;71.64;100804.64;106967;1263;22527;-53
2023/06/26 04:01:16;;;;;;;8.60;7.80;;;;;;;24.42;71.85;100803.95;106652;1264;25360;-47
2023/06/26 04:03:43;;;;;;;9.40;8.50;;;;;;;24.41;71.68;100804.21;106764;1267;25343;-49
2023/06/26 04:06:11;;;;;;;9.40;8.40;;;;;;;24.39;71.56;100806.98;107186;1256;25350;-49
2023/06/26 04:08:38;;;;;;;8.40;7.60;;;;;;;24.39;71.89;100811.80;106817;1268;25343;-50
2023/06/26 04:11:06;;;;;;;9.30;8.40;;;;;;;24.37;71.97;100811.77;106832;1256;25340;-48
2023/06/26 04:13:33;;;;;;;8.60;7.80;;;;;;;24.38;71.68;100814.54;107081;1263;25408;-49
2023/06/26 04:16:01;;;;;;;9.00;8.20;;;;;;;24.37;71.46;100818.35;106811;1260;25904;-48
2023/06/26 04:18:28;;;;;;;9.10;8.30;;;;;;;24.35;71.47;100814.90;107170;1256;25354;-49
2023/06/26 04:21:08;;;;;;;8.70;7.90;;;;;;;24.35;71.48;100818.81;106755;1259;25354;-48
2023/06/26 04:23:35;;;;;;;8.40;7.60;;;;;;;24.33;71.82;100825.00;107021;1258;25321;-48
2023/06/26 04:26:06;;;;;;;12.10;8.30;;;;;;;24.34;71.56;100825.34;107014;1256;25335;-48
2023/06/26 04:28:34;;;;;;;8.40;7.70;;;;;;;24.18;72.26;100828.25;107043;1258;25348;-48
2023/06/26 04:31:01;;;;;;;9.90;8.80;;;;;;;24.13;72.44;100827.73;106819;1266;25440;-49
2023/06/26 04:33:29;;;;;;;10.00;8.90;;;;;;;24.12;72.32;100828.20;106852;1271;25401;-48
2023/06/26 04:35:56;;;;;;;10.40;8.30;;;;;;;24.12;72.38;100830.88;107122;1256;25479;-50
2023/06/26 04:38:24;;;;;;;9.40;8.40;;;;;;;24.12;72.69;100832.81;107201;1267;25357;-48
2023/06/26 04:40:51;;;;;;;9.00;8.10;;;;;;;24.14;72.68;100831.05;106920;1261;23385;-51
2023/06/26 04:43:19;;;;;;;9.90;9.10;;;;;;;24.15;72.52;100831.73;106853;1267;23283;-49
2023/06/26 04:45:46;;;;;;;10.60;8.80;;;;;;;24.15;72.60;100833.45;107025;1264;24266;-48
2023/06/26 04:48:13;;;;;;;12.20;8.40;;;;;;;24.15;72.42;100832.39;107155;1262;25332;-48
2023/06/26 04:50:40;;;;;;;10.10;9.00;;;;;;;24.13;72.22;100829.34;107205;1264;25321;-48
2023/06/26 04:53:08;;;;;;;9.00;8.20;;;;;;;24.13;71.99;100825.33;107142;1262;25360;-49
2023/06/26 04:55:35;;;;;;;10.40;8.40;;;;;;;24.13;72.01;100824.40;107177;1256;25357;-47
2023/06/26 04:58:04;;;;;;;9.50;8.60;;;;;;;24.14;71.90;100823.10;106803;1269;25354;-48
2023/06/26 05:00:32;;;;;;;8.70;7.80;;;;;;;24.14;71.96;100818.14;106752;1261;25481;-48
2023/06/26 05:03:00;;;;;;;10.30;9.30;;;;;;;24.13;71.71;100815.67;106918;1265;25357;-53
2023/06/26 05:05:28;;;;;;;9.30;8.30;;;;;;;24.14;71.62;100818.10;106895;1262;22523;-48
2023/06/26 05:07:55;;;;;;;9.70;8.60;;;;;;;24.15;71.54;100813.94;106836;1265;22526;-48
2023/06/26 05:10:22;;;;;;;9.00;8.20;;;;;;;24.16;71.34;100806.80;107078;1268;25345;-50
2023/06/26 05:12:49;;;;;;;9.90;8.40;;;;;;;24.18;71.13;100814.29;107034;1260;25399;-49
2023/06/26 05:15:17;;;;;;;9.00;8.30;;;;;;;24.20;71.12;100818.90;107091;1263;25332;-49
2023/06/26 05:17:44;;;;;;;9.50;8.70;;;;;;;24.22;70.91;100819.83;107197;1262;23449;-53
2023/06/26 05:20:11;;;;;;;9.70;8.90;;;;;;;24.24;71.02;100821.45;107170;1266;22535;-50
2023/06/26 05:22:39;;;;;;;8.90;8.20;;;;;;;24.26;70.93;100821.80;106903;1265;25358;-49
2023/06/26 05:25:09;;;;;;;9.20;8.40;;;;;;;24.29;70.57;100820.20;106812;1266;25427;-51
2023/06/26 05:27:36;;;;;;;8.20;7.40;;;;;;;24.30;70.32;100823.85;107068;1260;22537;-48
2023/06/26 05:30:04;;;;;;;8.50;7.70;;;;;;;24.33;70.60;100825.39;106845;1260;25090;-48
2023/06/26 05:32:33;;;;;;;9.20;8.00;;;;;;;24.35;70.53;100828.02;107103;1259;24239;-48
2023/06/26 05:35:00;;;;;;;8.30;7.40;;;;;;;24.38;70.65;100830.32;106891;1259;22529;-47
2023/06/26 05:37:27;;;;;;;8.00;7.30;;;;;;;24.41;70.89;100827.91;106996;1255;25357;-49
2023/06/26 05:39:56;;;;;;;7.40;6.80;;;;;;;24.44;70.48;100832.65;107076;1251;25519;-49
2023/06/26 05:42:24;;;;;;;7.40;6.80;;;;;;;24.46;70.24;100832.00;107089;1264;25360;-47
2023/06/26 05:44:51;;;;;;;6.90;6.40;;;;;;;24.47;70.00;100831.85;107161;1259;25409;-48
2023/06/26 05:47:18;;;;;;;8.10;7.00;;;;;;;24.51;70.05;100833.91;106954;1269;25350;-50
2023/06/26 05:49:45;;;;;;;7.50;6.90;;;;;;;24.55;69.96;100831.97;107152;1262;26168;-47
2023/06/26 05:52:13;;;;;;;7.70;6.80;;;;;;;24.62;70.04;100830.86;107051;1266;25450;-50
2023/06/26 05:54:40;;;;;;;7.40;6.70;;;;;;;24.73;69.93;100828.95;107165;1262;22526;-47
2023/06/26 05:57:07;;;;;;;6.90;6.30;;;;;;;24.83;68.99;100832.71;107128;1262;25364;-49
2023/06/26 05:59:34;;;;;;;7.00;6.40;;;;;;;24.89;68.03;100835.78;107058;1264;22995;-48
2023/06/26 06:02:01;;;;;;;7.90;7.10;;;;;;;24.94;68.11;100833.29;106945;1256;25803;-51
2023/06/26 06:04:29;;;;;;;7.80;7.10;;;;;;;24.97;67.60;100831.45;107140;1263;25447;-49
2023/06/26 06:06:56;;;;;;;7.50;6.70;;;;;;;24.97;67.20;100829.80;107160;1260;25794;-48
2023/06/26 06:09:24;;;;;;;7.40;6.70;;;;;;;24.99;67.05;100829.67;107082;1260;25325;-49
2023/06/26 06:11:51;;;;;;;7.20;6.20;;;;;;;25.00;67.21;100832.42;107122;1263;23318;-48
2023/06/26 06:14:18;;;;;;;7.00;6.30;;;;;;;25.00;66.92;100834.20;106849;1268;25396;-54
2023/06/26 06:16:45;;;;;;;6.50;5.90;;;;;;;25.02;66.66;100832.28;106801;1268;25408;-48
2023/06/26 06:19:13;;;;;;;7.40;6.60;;;;;;;25.01;66.27;100833.77;107051;1266;25343;-51
2023/06/26 06:21:40;;;;;;;8.50;6.20;;;;;;;25.00;66.06;100837.61;106775;1264;24191;-50
2023/06/26 06:24:07;;;;;;;6.80;6.20;;;;;;;24.97;66.04;100837.62;107059;1265;25322;-52
2023/06/26 06:26:35;;;;;;;6.70;6.10;;;;;;;24.94;65.63;100836.46;106859;1263;25482;-49
2023/06/26 06:29:02;;;;;;;7.40;6.60;;;;;;;24.92;65.81;100837.86;107071;1260;25332;-51
2023/06/26 06:31:29;;;;;;;7.30;6.70;;;;;;;24.90;66.09;100841.23;106667;1268;25409;-48
2023/06/26 06:33:56;;;;;;;7.30;6.60;;;;;;;24.90;66.30;100843.55;106803;1267;25380;-52
2023/06/26 06:36:23;;;;;;;9.10;6.70;;;;;;;24.89;66.50;100840.80;107066;1265;25380;-50
2023/06/26 06:38:50;;;;;;;7.00;6.40;;;;;;;24.91;66.67;100843.31;106857;1264;22528;-50
2023/06/26 06:41:17;;;;;;;7.70;7.00;;;;;;;24.92;66.62;100846.94;107134;1267;24397;-50
2023/06/26 06:43:43;;;;;;;7.80;7.00;;;;;;;24.93;66.72;100845.27;107066;1265;25360;-48
2023/06/26 06:46:11;;;;;;;7.60;6.80;;;;;;;24.94;66.63;100850.86;107158;1261;25494;-47
2023/06/26 06:48:38;;;;;;;7.00;6.50;;;;;;;24.94;66.36;100851.86;107194;1262;25309;-53
2023/06/26 06:51:05;;;;;;;8.00;7.10;;;;;;;24.94;66.66;100853.88;106886;1265;25364;-48
2023/06/26 06:53:36;;;;;;;7.70;6.90;;;;;;;24.96;66.76;100856.34;107093;1257;23309;-48
2023/06/26 06:56:03;;;;;;;7.10;6.50;;;;;;;24.98;66.80;100858.11;107112;1265;25339;-49
2023/06/26 06:58:33;;;;;;;7.90;7.20;;;;;;;25.01;66.77;100858.08;107124;1262;22542;-49
2023/06/26 07:01:02;;;;;;;7.80;7.00;;;;;;;25.02;66.38;100857.26;107061;1259;25332;-47
2023/06/26 07:03:30;;;;;;;7.60;6.90;;;;;;;25.03;66.53;100860.19;106871;1258;22516;-47
2023/06/26 07:05:57;;;;;;;8.10;7.40;;;;;;;25.05;66.52;100860.94;107183;1268;25385;-50
2023/06/26 07:08:24;;;;;;;8.40;7.60;;;;;;;25.07;66.65;100863.11;107094;1263;22516;-50
2023/06/26 07:10:51;;;;;;;9.10;7.60;;;;;;;25.09;66.44;100862.07;106759;1268;25409;-49
2023/06/26 07:13:19;;;;;;;8.70;7.80;;;;;;;25.10;66.41;100865.30;107110;1259;25339;-48
2023/06/26 07:15:47;;;;;;;8.40;7.70;;;;;;;25.13;66.00;100869.75;107049;1263;25409;-49
2023/06/26 07:18:14;;;;;;;7.80;7.10;;;;;;;25.13;65.73;100871.85;107014;1264;25335;-50
2023/06/26 07:20:41;;;;;;;9.00;7.80;;;;;;;25.15;66.20;100872.59;107139;1265;22846;-50
2023/06/26 07:23:09;;;;;;;8.60;7.90;;;;;;;25.19;66.21;100869.03;106877;1268;25399;-48
2023/06/26 07:25:36;;;;;;;8.10;7.30;;;;;;;25.25;66.22;100871.20;107023;1265;25360;-49
2023/06/26 07:28:03;;;;;;;8.50;7.70;;;;;;;25.32;65.85;100874.73;107155;1265;25635;-51
2023/06/26 07:30:30;;;;;;;8.80;8.00;;;;;;;25.38;65.69;100877.80;107085;1265;25354;-48
2023/06/26 07:32:57;;;;;;;8.40;7.70;;;;;;;25.43;65.95;100878.77;107027;1256;25350;-50
2023/06/26 07:35:24;;;;;;;8.70;7.90;;;;;;;25.49;65.47;100882.41;107116;1255;25336;-48
2023/06/26 07:37:52;;;;;;;8.60;7.80;;;;;;;25.53;65.37;100883.45;107074;1256;25501;-49
2023/06/26 07:40:19;;;;;;;8.70;7.90;;;;;;;25.58;65.05;100884.45;107059;1265;25361;-53
2023/06/26 07:42:46;;;;;;;8.50;7.70;;;;;;;25.66;64.84;100888.79;107144;1265;25340;-49
2023/06/26 07:45:13;;;;;;;8.80;8.00;;;;;;;25.74;64.58;100889.94;107145;1260;25325;-51
2023/06/26 07:47:40;;;;;;;9.90;8.70;;;;;;;25.79;64.20;100888.27;106857;1264;25360;-48
2023/06/26 07:50:08;;;;;;;9.40;8.10;;;;;;;25.82;64.25;100887.75;107120;1259;25311;-49
2023/06/26 07:52:36;;;;;;;9.80;8.70;;;;;;;25.86;63.80;100890.36;107062;1261;25360;-49
2023/06/26 07:55:04;;;;;;;9.20;8.40;;;;;;;25.85;63.05;100892.91;107016;1265;25324;-48
2023/06/26 07:57:32;;;;;;;8.90;8.10;;;;;;;25.82;63.20;100894.54;106983;1256;25416;-48
2023/06/26 07:59:59;;;;;;;10.00;8.80;;;;;;;25.83;63.38;100900.33;107021;1257;23143;-48
2023/06/26 08:02:26;;;;;;;9.30;8.30;;;;;;;25.85;63.13;100899.16;107001;1271;25428;-50
2023/06/26 08:04:53;;;;;;;11.10;8.80;;;;;;;25.87;63.29;100897.59;107095;1262;25332;-50
2023/06/26 08:07:20;;;;;;;9.20;8.40;;;;;;;25.90;63.52;100896.77;106778;1258;25485;-49
2023/06/26 08:09:47;;;;;;;9.70;8.70;;;;;;;25.94;63.71;100898.02;106827;1262;25360;-51
2023/06/26 08:12:14;;;;;;;9.40;8.50;;;;;;;25.98;63.31;100900.92;106870;1257;25360;-49
2023/06/26 08:14:42;;;;;;;9.50;8.60;;;;;;;25.99;63.04;100890.14;106994;1256;25377;-50
2023/06/26 08:17:09;;;;;;;9.80;8.90;;;;;;;26.02;63.18;100893.50;106824;1256;25362;-52
2023/06/26 08:19:35;;;;;;;10.80;9.90;;;;;;;26.03;63.04;100896.18;106772;1265;26498;-49
2023/06/26 08:22:03;;;;;;;10.70;9.70;;;;;;;26.03;63.05;100896.04;106889;1265;24256;-50
2023/06/26 08:24:30;;;;;;;11.60;10.20;;;;;;;26.02;63.14;100899.16;106904;1263;25446;-48
2023/06/26 08:26:57;;;;;;;11.30;10.30;;;;;;;26.01;63.31;100901.02;106889;1263;25412;-51
2023/06/26 08:29:25;;;;;;;11.20;10.20;;;;;;;26.03;63.77;100901.53;106867;1265;25325;-47
2023/06/26 08:31:52;;;;;;;11.30;10.20;;;;;;;26.04;63.70;100899.89;106821;1263;25409;-50
2023/06/26 08:34:19;;;;;;;12.50;10.50;;;;;;;26.02;63.87;100900.94;106740;1263;25328;-48
2023/06/26 08:36:46;;;;;;;11.50;10.50;;;;;;;26.01;63.67;100901.52;106887;1271;25479;-49
2023/06/26 08:39:13;;;;;;;11.80;10.60;;;;;;;25.99;62.90;100900.11;107127;1269;25380;-48
2023/06/26 08:41:40;;;;;;;11.30;10.20;;;;;;;25.98;63.28;100899.68;107158;1257;25349;-49
2023/06/26 08:44:07;;;;;;;12.30;10.30;;;;;;;25.96;63.19;100899.64;106937;1269;25360;-50
2023/06/26 08:46:34;;;;;;;11.30;10.30;;;;;;;25.93;63.02;100902.71;106876;1266;25350;-49
2023/06/26 08:49:05;;;;;;;11.20;10.10;;;;;;;25.89;62.76;100900.94;106978;1266;25481;-51
2023/06/26 08:51:32;;;;;;;10.70;9.70;;;;;;;25.87;63.03;100901.98;107107;1264;24190;-51
2023/06/26 08:54:00;;;;;;;11.00;10.00;;;;;;;25.89;62.76;100902.39;107130;1256;25339;-49
2023/06/26 08:56:31;;;;;;;11.10;10.10;;;;;;;25.92;62.79;100903.03;106855;1272;24415;-49
2023/06/26 08:58:58;;;;;;;10.70;9.80;;;;;;;25.97;62.50;100900.80;107069;1256;25308;-49
2023/06/26 09:01:25;;;;;;;11.00;9.90;;;;;;;26.01;62.10;100902.59;106851;1259;25409;-53
2023/06/26 09:03:52;;;;;;;10.60;9.60;;;;;;;26.05;62.12;100900.52;107140;1267;25337;-50
2023/06/26 09:06:19;;;;;;;10.30;9.40;;;;;;;26.09;61.88;100898.75;107050;1264;24603;-54
2023/06/26 09:08:46;;;;;;;11.50;10.20;;;;;;;26.13;61.86;100896.45;107030;1265;25441;-50
2023/06/26 09:11:13;;;;;;;10.10;9.30;;;;;;;26.17;61.94;100897.19;107211;1265;25360;-47
2023/06/26 09:13:41;;;;;;;10.20;9.40;;;;;;;26.22;61.86;100895.48;107078;1266;25412;-51
2023/06/26 09:16:09;;;;;;;10.80;9.80;;;;;;;26.29;61.52;100894.02;107052;1266;25363;-49
2023/06/26 09:18:40;;;;;;;10.30;9.30;;;;;;;26.34;61.05;100897.61;107117;1267;25399;-48
2023/06/26 09:21:08;;;;;;;11.10;10.00;;;;;;;26.39;60.69;100895.80;107071;1267;25337;-51
2023/06/26 09:23:35;;;;;;;11.00;10.00;;;;;;;26.45;60.32;100894.73;107078;1256;22539;-49
2023/06/26 09:26:05;;;;;;;11.40;10.30;;;;;;;26.52;60.15;100897.36;107105;1263;22547;-51
2023/06/26 09:28:33;;;;;;;10.00;9.10;;;;;;;26.57;59.16;100895.66;107097;1268;25325;-50
2023/06/26 09:31:04;;;;;;;10.10;9.00;;;;;;;26.60;59.22;100895.95;107064;1265;25479;-49
2023/06/26 09:33:38;;;;;;;10.20;9.40;;;;;;;26.64;58.98;100895.80;106959;1263;25443;-48
2023/06/26 09:36:12;;;;;;;10.60;8.50;;;;;;;26.70;58.76;100892.38;106830;1259;24240;-54
2023/06/26 09:38:39;;;;;;;10.00;8.60;;;;;;;26.78;58.67;100894.95;107035;1267;25387;-53
2023/06/26 09:41:06;;;;;;;10.10;9.10;;;;;;;26.85;58.25;100891.98;107145;1259;25350;-49
2023/06/26 09:43:33;;;;;;;9.60;8.70;;;;;;;26.89;57.92;100893.02;107012;1266;25389;-48
2023/06/26 09:46:00;;;;;;;9.70;8.90;;;;;;;26.95;57.67;100891.80;107179;1256;25325;-48
2023/06/26 09:48:28;;;;;;;9.80;8.90;;;;;;;27.13;57.54;100885.58;107079;1263;25464;-49
2023/06/26 09:50:55;;;;;;;9.70;8.80;;;;;;;27.23;57.72;100878.76;106820;1268;25364;-48
2023/06/26 09:53:39;;;;;;;9.70;8.90;;;;;;;27.33;57.47;100882.50;106940;1266;25412;-49
2023/06/26 09:56:07;;;;;;;9.80;8.90;;;;;;;27.41;57.45;100876.98;107120;1257;25360;-49
2023/06/26 09:58:34;;;;;;;10.30;9.30;;;;;;;27.51;57.27;100876.86;107091;1259;25399;-47
2023/06/26 10:01:03;;;;;;;10.00;9.10;;;;;;;27.61;56.86;100878.06;106929;1264;24223;-50
2023/06/26 10:03:30;;;;;;;9.40;8.60;;;;;;;27.70;56.41;100874.35;107115;1256;22546;-47
2023/06/26 10:05:57;;;;;;;9.70;8.70;;;;;;;27.77;56.49;100870.10;107158;1265;25353;-48
2023/06/26 10:08:25;;;;;;;9.80;8.90;;;;;;;27.84;56.18;100868.75;107020;1265;23277;-49
2023/06/26 10:10:52;;;;;;;10.50;9.60;;;;;;;27.89;55.63;100868.98;106493;1271;24195;-48
2023/06/26 10:13:25;;;;;;;10.40;9.50;;;;;;;27.93;54.79;100863.52;106525;1269;25331;-53
2023/06/26 10:15:52;;;;;;;9.50;8.70;;;;;;;27.98;54.35;100863.98;106322;1272;22535;-50
2023/06/26 10:18:19;;;;;;;10.10;9.20;;;;;;;28.03;54.30;100865.90;106254;1271;24227;-50
2023/06/26 10:20:47;;;;;;;10.70;9.50;;;;;;;28.10;53.94;100870.10;106651;1279;22558;-52
2023/06/26 10:23:14;;;;;;;10.50;9.60;;;;;;;28.18;54.79;100872.20;106773;1273;24505;-50
2023/06/26 10:25:42;;;;;;;10.40;9.60;;;;;;;28.26;55.05;100867.49;106735;1261;25492;-51
2023/06/26 10:28:09;;;;;;;11.40;10.40;;;;;;;28.34;54.95;100868.71;106591;1267;25370;-49
2023/06/26 10:30:36;;;;;;;11.10;9.90;;;;;;;28.42;54.35;100866.69;106733;1268;25410;-49
2023/06/26 10:33:05;;;;;;;10.50;9.60;;;;;;;28.47;54.44;100872.24;106636;1261;25357;-47
2023/06/26 10:35:32;;;;;;;11.30;10.20;;;;;;;28.52;54.74;100876.07;106428;1275;25324;-49
2023/06/26 10:38:02;;;;;;;11.10;10.20;;;;;;;28.56;54.96;100879.10;106420;1264;25527;-50
2023/06/26 10:40:45;;;;;;;11.20;10.10;;;;;;;28.62;55.25;100880.03;106286;1268;25565;-51
2023/06/26 10:43:13;;;;;;;10.40;9.40;;;;;;;28.66;54.92;100878.67;106384;1268;22536;-49
2023/06/26 10:45:51;;;;;;;11.80;10.80;;;;;;;28.68;54.55;100897.27;106734;1262;25358;-53
2023/06/26 10:48:20;;;;;;;10.20;9.30;;;;;;;28.57;53.93;100910.77;106756;1269;25438;-48
2023/06/26 10:50:48;;;;;;;8.80;7.40;;;;;;;28.31;54.31;100901.86;106753;1272;25387;-47
2023/06/26 10:53:20;;;;;;;6.80;6.20;;;;;;;27.91;54.31;100891.85;106630;1272;25516;-49
2023/06/26 10:55:58;;;;;;;5.60;4.90;;;;;;;27.50;54.64;100892.61;106831;1269;23311;-48
2023/06/26 10:58:44;;;;;;;6.30;5.70;;;;;;;27.11;55.21;100895.20;106760;1270;22536;-49
2023/06/26 11:01:15;;;;;;;5.90;5.20;;;;;;;26.72;56.35;100900.61;106781;1262;25321;-48
2023/06/26 11:03:45;;;;;;;5.00;4.50;;;;;;;26.40;57.76;100912.95;106805;1260;25340;-50
2023/06/26 11:06:12;;;;;;;7.00;4.50;;;;;;;26.12;58.60;100924.42;106768;1266;25708;-54
2023/06/26 11:08:53;;;;;;;6.10;4.70;;;;;;;25.88;59.71;100927.34;106631;1271;25402;-51
2023/06/26 11:11:44;;;;;;;8.10;7.30;;;;;;;25.64;60.12;100926.48;106773;1268;22644;-48
2023/06/26 11:14:11;;;;;;;7.20;6.60;;;;;;;25.41;60.69;100925.45;107087;1271;25401;-48
2023/06/26 11:16:39;;;;;;;6.80;6.20;;;;;;;25.28;60.99;100923.38;107064;1264;25315;-48
2023/06/26 11:19:06;;;;;;;7.50;6.80;;;;;;;25.19;60.92;100920.05;107001;1267;25485;-48
2023/06/26 11:21:33;;;;;;;9.70;8.60;;;;;;;25.11;61.20;100922.77;107057;1265;25343;-47